sensor_id;sensor_type;location;lat;lon;timestamp;P1;durP1;ratioP1;P2;durP2;ratioP2
57567;SDS011;43403;51.948;5.922;2023-09-19T00:00:41;6.95;;;1.65;;
57567;SDS011;43403;51.948;5.922;2023-09-19T00:03:08;7.57;;;1.52;;
57567;SDS011;43403;51.948;5.922;2023-09-19T00:05:36;6.97;;;1.65;;
57567;SDS011;43403;51.948;5.922;2023-09-19T00:08:11;9.68;;;2.42;;
57567;SDS011;43403;51.948;5.922;2023-09-19T00:10:42;18.23;;;2.92;;
57567;SDS011;43403;51.948;5.922;2023-09-19T00:13:09;14.43;;;2.67;;
57567;SDS011;43403;51.948;5.922;2023-09-19T00:15:42;12.13;;;2.65;;
57567;SDS011;43403;51.948;5.922;2023-09-19T00:18:18;12.10;;;2.50;;
57567;SDS011;43403;51.948;5.922;2023-09-19T00:20:49;9.80;;;2.53;;
57567;SDS011;43403;51.948;5.922;2023-09-19T00:23:18;10.52;;;2.70;;
57567;SDS011;43403;51.948;5.922;2023-09-19T00:25:46;15.05;;;2.83;;
57567;SDS011;43403;51.948;5.922;2023-09-19T00:28:13;10.85;;;2.08;;
57567;SDS011;43403;51.948;5.922;2023-09-19T00:30:42;8.20;;;1.90;;
57567;SDS011;43403;51.948;5.922;2023-09-19T00:33:10;10.60;;;2.10;;
57567;SDS011;43403;51.948;5.922;2023-09-19T00:35:37;8.90;;;2.05;;
57567;SDS011;43403;51.948;5.922;2023-09-19T00:38:04;12.32;;;2.35;;
57567;SDS011;43403;51.948;5.922;2023-09-19T00:40:33;9.30;;;1.80;;
57567;SDS011;43403;51.948;5.922;2023-09-19T00:43:30;10.70;;;2.30;;
57567;SDS011;43403;51.948;5.922;2023-09-19T00:46:55;17.25;;;3.90;;
57567;SDS011;43403;51.948;5.922;2023-09-19T00:49:32;7.28;;;1.70;;
57567;SDS011;43403;51.948;5.922;2023-09-19T00:51:59;8.65;;;1.88;;
57567;SDS011;43403;51.948;5.922;2023-09-19T00:54:33;10.88;;;1.83;;
57567;SDS011;43403;51.948;5.922;2023-09-19T00:57:03;5.90;;;1.70;;
57567;SDS011;43403;51.948;5.922;2023-09-19T00:59:34;9.20;;;2.10;;
57567;SDS011;43403;51.948;5.922;2023-09-19T01:02:15;9.95;;;2.20;;
57567;SDS011;43403;51.948;5.922;2023-09-19T01:04:56;8.75;;;2.00;;
57567;SDS011;43403;51.948;5.922;2023-09-19T01:07:27;8.73;;;2.38;;
57567;SDS011;43403;51.948;5.922;2023-09-19T01:09:57;14.13;;;3.05;;
57567;SDS011;43403;51.948;5.922;2023-09-19T01:12:33;12.45;;;2.38;;
57567;SDS011;43403;51.948;5.922;2023-09-19T01:15:06;9.02;;;2.00;;
57567;SDS011;43403;51.948;5.922;2023-09-19T01:17:57;10.73;;;2.20;;
57567;SDS011;43403;51.948;5.922;2023-09-19T01:20:39;14.00;;;2.55;;
57567;SDS011;43403;51.948;5.922;2023-09-19T01:31:59;10.02;;;2.47;;
57567;SDS011;43403;51.948;5.922;2023-09-19T01:34:49;14.70;;;2.85;;
57567;SDS011;43403;51.948;5.922;2023-09-19T01:37:30;11.85;;;2.40;;
57567;SDS011;43403;51.948;5.922;2023-09-19T01:40:07;10.00;;;2.33;;
57567;SDS011;43403;51.948;5.922;2023-09-19T01:42:49;15.60;;;3.03;;
57567;SDS011;43403;51.948;5.922;2023-09-19T01:51:14;16.67;;;2.80;;
57567;SDS011;43403;51.948;5.922;2023-09-19T01:54:03;9.55;;;1.92;;
57567;SDS011;43403;51.948;5.922;2023-09-19T01:56:51;12.68;;;2.47;;
57567;SDS011;43403;51.948;5.922;2023-09-19T01:59:25;9.32;;;2.38;;
57567;SDS011;43403;51.948;5.922;2023-09-19T02:02:12;11.95;;;2.53;;
57567;SDS011;43403;51.948;5.922;2023-09-19T02:04:40;14.00;;;2.47;;
57567;SDS011;43403;51.948;5.922;2023-09-19T02:07:07;10.00;;;2.15;;
57567;SDS011;43403;51.948;5.922;2023-09-19T02:09:34;11.68;;;2.22;;
57567;SDS011;43403;51.948;5.922;2023-09-19T02:12:01;14.30;;;2.35;;
57567;SDS011;43403;51.948;5.922;2023-09-19T02:16:57;10.88;;;2.20;;
57567;SDS011;43403;51.948;5.922;2023-09-19T02:19:23;12.70;;;2.17;;
57567;SDS011;43403;51.948;5.922;2023-09-19T02:21:50;12.77;;;2.10;;
57567;SDS011;43403;51.948;5.922;2023-09-19T02:24:16;14.85;;;2.70;;
57567;SDS011;43403;51.948;5.922;2023-09-19T02:26:43;13.38;;;2.72;;
57567;SDS011;43403;51.948;5.922;2023-09-19T02:29:10;13.25;;;2.33;;
57567;SDS011;43403;51.948;5.922;2023-09-19T02:31:39;15.32;;;2.60;;
57567;SDS011;43403;51.948;5.922;2023-09-19T02:34:05;14.77;;;2.63;;
57567;SDS011;43403;51.948;5.922;2023-09-19T02:36:33;14.13;;;2.25;;
57567;SDS011;43403;51.948;5.922;2023-09-19T02:38:59;14.73;;;2.00;;
57567;SDS011;43403;51.948;5.922;2023-09-19T02:41:26;14.75;;;2.63;;
57567;SDS011;43403;51.948;5.922;2023-09-19T02:43:55;10.40;;;2.25;;
57567;SDS011;43403;51.948;5.922;2023-09-19T02:46:23;19.30;;;3.03;;
57567;SDS011;43403;51.948;5.922;2023-09-19T02:48:49;12.77;;;2.20;;
57567;SDS011;43403;51.948;5.922;2023-09-19T02:51:16;15.20;;;2.72;;
57567;SDS011;43403;51.948;5.922;2023-09-19T02:53:45;10.13;;;2.38;;
57567;SDS011;43403;51.948;5.922;2023-09-19T02:56:13;13.20;;;2.45;;
57567;SDS011;43403;51.948;5.922;2023-09-19T02:58:41;12.82;;;2.17;;
57567;SDS011;43403;51.948;5.922;2023-09-19T03:01:09;16.77;;;2.55;;
57567;SDS011;43403;51.948;5.922;2023-09-19T03:03:38;18.05;;;2.55;;
57567;SDS011;43403;51.948;5.922;2023-09-19T03:06:06;8.35;;;2.33;;
57567;SDS011;43403;51.948;5.922;2023-09-19T03:08:35;7.65;;;1.92;;
57567;SDS011;43403;51.948;5.922;2023-09-19T03:11:06;12.73;;;2.13;;
57567;SDS011;43403;51.948;5.922;2023-09-19T03:13:34;17.02;;;2.58;;
57567;SDS011;43403;51.948;5.922;2023-09-19T03:16:02;11.13;;;2.40;;
57567;SDS011;43403;51.948;5.922;2023-09-19T03:18:33;11.70;;;2.10;;
57567;SDS011;43403;51.948;5.922;2023-09-19T03:21:00;12.05;;;2.50;;
57567;SDS011;43403;51.948;5.922;2023-09-19T03:23:28;10.63;;;2.60;;
57567;SDS011;43403;51.948;5.922;2023-09-19T03:25:55;12.00;;;2.00;;
57567;SDS011;43403;51.948;5.922;2023-09-19T03:28:25;11.07;;;2.28;;
57567;SDS011;43403;51.948;5.922;2023-09-19T03:31:01;12.95;;;2.85;;
57567;SDS011;43403;51.948;5.922;2023-09-19T03:33:29;10.40;;;1.98;;
57567;SDS011;43403;51.948;5.922;2023-09-19T03:35:58;9.48;;;2.10;;
57567;SDS011;43403;51.948;5.922;2023-09-19T03:38:25;10.52;;;2.10;;
57567;SDS011;43403;51.948;5.922;2023-09-19T03:40:52;11.95;;;2.05;;
57567;SDS011;43403;51.948;5.922;2023-09-19T03:43:19;9.00;;;2.88;;
57567;SDS011;43403;51.948;5.922;2023-09-19T03:45:46;10.30;;;2.22;;
57567;SDS011;43403;51.948;5.922;2023-09-19T03:48:17;9.90;;;2.00;;
57567;SDS011;43403;51.948;5.922;2023-09-19T03:50:43;13.68;;;2.08;;
57567;SDS011;43403;51.948;5.922;2023-09-19T03:54:09;20.75;;;3.70;;
57567;SDS011;43403;51.948;5.922;2023-09-19T03:57:36;12.55;;;2.28;;
57567;SDS011;43403;51.948;5.922;2023-09-19T04:01:05;10.95;;;2.17;;
57567;SDS011;43403;51.948;5.922;2023-09-19T04:03:54;11.40;;;2.38;;
57567;SDS011;43403;51.948;5.922;2023-09-19T04:06:21;12.35;;;2.03;;
57567;SDS011;43403;51.948;5.922;2023-09-19T04:08:48;13.13;;;2.25;;
57567;SDS011;43403;51.948;5.922;2023-09-19T04:11:15;7.90;;;1.80;;
57567;SDS011;43403;51.948;5.922;2023-09-19T04:13:41;10.50;;;1.80;;
57567;SDS011;43403;51.948;5.922;2023-09-19T04:16:08;12.20;;;1.98;;
57567;SDS011;43403;51.948;5.922;2023-09-19T04:18:36;10.18;;;2.08;;
57567;SDS011;43403;51.948;5.922;2023-09-19T04:21:04;10.77;;;2.10;;
57567;SDS011;43403;51.948;5.922;2023-09-19T04:23:32;11.82;;;1.90;;
57567;SDS011;43403;51.948;5.922;2023-09-19T04:25:59;14.23;;;3.03;;
57567;SDS011;43403;51.948;5.922;2023-09-19T04:28:26;10.02;;;1.88;;
57567;SDS011;43403;51.948;5.922;2023-09-19T04:30:54;10.95;;;1.80;;
57567;SDS011;43403;51.948;5.922;2023-09-19T04:33:21;8.25;;;1.70;;
57567;SDS011;43403;51.948;5.922;2023-09-19T04:35:51;9.05;;;1.80;;
57567;SDS011;43403;51.948;5.922;2023-09-19T04:38:18;7.63;;;1.70;;
57567;SDS011;43403;51.948;5.922;2023-09-19T04:40:46;8.68;;;2.13;;
57567;SDS011;43403;51.948;5.922;2023-09-19T04:43:13;12.35;;;1.77;;
57567;SDS011;43403;51.948;5.922;2023-09-19T04:45:39;11.10;;;1.83;;
57567;SDS011;43403;51.948;5.922;2023-09-19T04:48:08;12.05;;;2.10;;
57567;SDS011;43403;51.948;5.922;2023-09-19T04:50:36;10.65;;;1.85;;
57567;SDS011;43403;51.948;5.922;2023-09-19T04:53:03;10.52;;;2.10;;
57567;SDS011;43403;51.948;5.922;2023-09-19T04:55:31;11.67;;;2.30;;
57567;SDS011;43403;51.948;5.922;2023-09-19T04:57:59;12.93;;;2.40;;
57567;SDS011;43403;51.948;5.922;2023-09-19T05:00:26;10.70;;;2.22;;
57567;SDS011;43403;51.948;5.922;2023-09-19T05:02:56;12.30;;;2.13;;
57567;SDS011;43403;51.948;5.922;2023-09-19T05:05:24;11.27;;;1.77;;
57567;SDS011;43403;51.948;5.922;2023-09-19T05:07:51;8.55;;;2.00;;
57567;SDS011;43403;51.948;5.922;2023-09-19T05:10:20;9.90;;;2.25;;
57567;SDS011;43403;51.948;5.922;2023-09-19T05:12:48;8.25;;;1.90;;
57567;SDS011;43403;51.948;5.922;2023-09-19T05:15:18;10.65;;;1.90;;
57567;SDS011;43403;51.948;5.922;2023-09-19T05:17:50;13.85;;;1.92;;
57567;SDS011;43403;51.948;5.922;2023-09-19T05:20:23;9.25;;;1.77;;
57567;SDS011;43403;51.948;5.922;2023-09-19T05:23:02;9.60;;;1.73;;
57567;SDS011;43403;51.948;5.922;2023-09-19T05:25:32;15.98;;;2.50;;
57567;SDS011;43403;51.948;5.922;2023-09-19T05:27:59;8.02;;;1.60;;
57567;SDS011;43403;51.948;5.922;2023-09-19T05:30:26;10.82;;;1.80;;
57567;SDS011;43403;51.948;5.922;2023-09-19T05:32:53;11.85;;;1.90;;
57567;SDS011;43403;51.948;5.922;2023-09-19T05:35:21;12.05;;;1.63;;
57567;SDS011;43403;51.948;5.922;2023-09-19T05:37:51;7.00;;;2.28;;
57567;SDS011;43403;51.948;5.922;2023-09-19T05:40:18;8.50;;;1.52;;
57567;SDS011;43403;51.948;5.922;2023-09-19T05:42:46;9.90;;;1.90;;
57567;SDS011;43403;51.948;5.922;2023-09-19T05:45:13;10.80;;;1.90;;
57567;SDS011;43403;51.948;5.922;2023-09-19T05:47:40;12.40;;;1.90;;
57567;SDS011;43403;51.948;5.922;2023-09-19T05:50:12;6.32;;;1.80;;
57567;SDS011;43403;51.948;5.922;2023-09-19T05:52:38;10.25;;;2.53;;
57567;SDS011;43403;51.948;5.922;2023-09-19T05:55:05;17.33;;;3.00;;
57567;SDS011;43403;51.948;5.922;2023-09-19T05:57:34;12.80;;;1.88;;
57567;SDS011;43403;51.948;5.922;2023-09-19T06:00:01;10.60;;;1.83;;
57567;SDS011;43403;51.948;5.922;2023-09-19T06:02:28;9.88;;;2.35;;
57567;SDS011;43403;51.948;5.922;2023-09-19T06:07:23;10.80;;;2.08;;
57567;SDS011;43403;51.948;5.922;2023-09-19T06:09:52;12.32;;;2.25;;
57567;SDS011;43403;51.948;5.922;2023-09-19T06:12:22;12.80;;;2.00;;
57567;SDS011;43403;51.948;5.922;2023-09-19T06:14:48;7.10;;;2.00;;
57567;SDS011;43403;51.948;5.922;2023-09-19T06:17:15;14.32;;;3.40;;
57567;SDS011;43403;51.948;5.922;2023-09-19T06:19:43;10.95;;;2.17;;
57567;SDS011;43403;51.948;5.922;2023-09-19T06:22:15;10.18;;;2.38;;
57567;SDS011;43403;51.948;5.922;2023-09-19T06:24:44;7.40;;;1.67;;
57567;SDS011;43403;51.948;5.922;2023-09-19T06:27:13;9.88;;;2.13;;
57567;SDS011;43403;51.948;5.922;2023-09-19T06:29:39;13.55;;;2.25;;
57567;SDS011;43403;51.948;5.922;2023-09-19T06:32:10;9.10;;;1.85;;
57567;SDS011;43403;51.948;5.922;2023-09-19T06:34:37;11.60;;;1.77;;
57567;SDS011;43403;51.948;5.922;2023-09-19T06:37:04;7.85;;;1.77;;
57567;SDS011;43403;51.948;5.922;2023-09-19T06:39:32;9.97;;;2.20;;
57567;SDS011;43403;51.948;5.922;2023-09-19T06:41:59;8.18;;;2.33;;
57567;SDS011;43403;51.948;5.922;2023-09-19T06:44:27;19.60;;;3.45;;
57567;SDS011;43403;51.948;5.922;2023-09-19T06:46:56;12.13;;;2.20;;
57567;SDS011;43403;51.948;5.922;2023-09-19T06:49:25;9.98;;;2.20;;
57567;SDS011;43403;51.948;5.922;2023-09-19T06:51:53;12.00;;;2.10;;
57567;SDS011;43403;51.948;5.922;2023-09-19T06:54:21;10.98;;;2.05;;
57567;SDS011;43403;51.948;5.922;2023-09-19T06:56:47;11.43;;;2.45;;
57567;SDS011;43403;51.948;5.922;2023-09-19T06:59:14;15.65;;;2.47;;
57567;SDS011;43403;51.948;5.922;2023-09-19T07:01:40;11.85;;;2.40;;
57567;SDS011;43403;51.948;5.922;2023-09-19T07:04:10;10.35;;;2.30;;
57567;SDS011;43403;51.948;5.922;2023-09-19T07:06:39;14.43;;;2.38;;
57567;SDS011;43403;51.948;5.922;2023-09-19T07:09:06;7.90;;;2.20;;
57567;SDS011;43403;51.948;5.922;2023-09-19T07:11:34;12.35;;;2.05;;
57567;SDS011;43403;51.948;5.922;2023-09-19T07:14:01;12.82;;;2.50;;
57567;SDS011;43403;51.948;5.922;2023-09-19T07:16:29;10.32;;;1.95;;
57567;SDS011;43403;51.948;5.922;2023-09-19T07:18:56;12.85;;;2.08;;
57567;SDS011;43403;51.948;5.922;2023-09-19T07:21:23;15.93;;;2.40;;
57567;SDS011;43403;51.948;5.922;2023-09-19T07:23:50;14.35;;;2.42;;
57567;SDS011;43403;51.948;5.922;2023-09-19T07:26:18;9.00;;;1.90;;
57567;SDS011;43403;51.948;5.922;2023-09-19T07:28:45;13.30;;;2.40;;
57567;SDS011;43403;51.948;5.922;2023-09-19T07:31:11;12.50;;;2.20;;
57567;SDS011;43403;51.948;5.922;2023-09-19T07:33:40;18.70;;;2.65;;
57567;SDS011;43403;51.948;5.922;2023-09-19T07:36:09;13.85;;;2.20;;
57567;SDS011;43403;51.948;5.922;2023-09-19T07:38:37;14.02;;;2.33;;
57567;SDS011;43403;51.948;5.922;2023-09-19T07:41:03;9.23;;;1.80;;
57567;SDS011;43403;51.948;5.922;2023-09-19T07:43:31;11.52;;;2.10;;
57567;SDS011;43403;51.948;5.922;2023-09-19T07:46:02;11.93;;;2.17;;
57567;SDS011;43403;51.948;5.922;2023-09-19T07:48:30;14.38;;;2.75;;
57567;SDS011;43403;51.948;5.922;2023-09-19T07:51:01;15.10;;;2.00;;
57567;SDS011;43403;51.948;5.922;2023-09-19T07:53:34;12.50;;;2.58;;
57567;SDS011;43403;51.948;5.922;2023-09-19T07:56:02;14.98;;;2.90;;
57567;SDS011;43403;51.948;5.922;2023-09-19T08:01:02;16.45;;;2.60;;
57567;SDS011;43403;51.948;5.922;2023-09-19T08:03:29;6.75;;;1.70;;
57567;SDS011;43403;51.948;5.922;2023-09-19T08:05:56;12.60;;;2.05;;
57567;SDS011;43403;51.948;5.922;2023-09-19T08:08:24;12.93;;;2.60;;
57567;SDS011;43403;51.948;5.922;2023-09-19T08:10:55;16.75;;;2.53;;
57567;SDS011;43403;51.948;5.922;2023-09-19T08:13:25;15.57;;;2.60;;
57567;SDS011;43403;51.948;5.922;2023-09-19T08:15:52;11.23;;;2.10;;
57567;SDS011;43403;51.948;5.922;2023-09-19T08:18:21;12.43;;;2.35;;
57567;SDS011;43403;51.948;5.922;2023-09-19T08:20:50;16.13;;;3.10;;
57567;SDS011;43403;51.948;5.922;2023-09-19T08:23:17;12.38;;;3.15;;
57567;SDS011;43403;51.948;5.922;2023-09-19T08:25:47;15.07;;;2.30;;
57567;SDS011;43403;51.948;5.922;2023-09-19T08:28:14;12.55;;;2.70;;
57567;SDS011;43403;51.948;5.922;2023-09-19T08:30:45;11.10;;;3.03;;
57567;SDS011;43403;51.948;5.922;2023-09-19T08:33:12;14.90;;;2.80;;
57567;SDS011;43403;51.948;5.922;2023-09-19T08:35:41;16.92;;;2.50;;
57567;SDS011;43403;51.948;5.922;2023-09-19T08:38:09;12.13;;;2.58;;
57567;SDS011;43403;51.948;5.922;2023-09-19T08:40:37;9.60;;;2.45;;
57567;SDS011;43403;51.948;5.922;2023-09-19T08:43:06;13.43;;;2.55;;
57567;SDS011;43403;51.948;5.922;2023-09-19T08:45:34;16.10;;;2.65;;
57567;SDS011;43403;51.948;5.922;2023-09-19T08:48:15;16.55;;;2.65;;
57567;SDS011;43403;51.948;5.922;2023-09-19T08:50:49;16.45;;;3.00;;
57567;SDS011;43403;51.948;5.922;2023-09-19T08:53:26;10.68;;;2.58;;
57567;SDS011;43403;51.948;5.922;2023-09-19T08:55:56;8.77;;;2.20;;
57567;SDS011;43403;51.948;5.922;2023-09-19T08:58:27;11.48;;;2.22;;
57567;SDS011;43403;51.948;5.922;2023-09-19T09:01:00;11.68;;;2.25;;
57567;SDS011;43403;51.948;5.922;2023-09-19T09:03:30;13.80;;;2.20;;
57567;SDS011;43403;51.948;5.922;2023-09-19T09:06:00;16.08;;;2.63;;
57567;SDS011;43403;51.948;5.922;2023-09-19T09:08:27;15.20;;;2.70;;
57567;SDS011;43403;51.948;5.922;2023-09-19T09:10:57;15.80;;;2.55;;
57567;SDS011;43403;51.948;5.922;2023-09-19T09:13:25;17.55;;;2.30;;
57567;SDS011;43403;51.948;5.922;2023-09-19T09:15:52;11.95;;;2.78;;
57567;SDS011;43403;51.948;5.922;2023-09-19T09:18:20;12.60;;;2.10;;
57567;SDS011;43403;51.948;5.922;2023-09-19T09:20:47;9.27;;;2.13;;
57567;SDS011;43403;51.948;5.922;2023-09-19T09:23:14;19.67;;;2.28;;
57567;SDS011;43403;51.948;5.922;2023-09-19T09:25:48;12.48;;;2.15;;
57567;SDS011;43403;51.948;5.922;2023-09-19T09:28:25;14.27;;;2.15;;
57567;SDS011;43403;51.948;5.922;2023-09-19T09:30:53;14.32;;;2.70;;
57567;SDS011;43403;51.948;5.922;2023-09-19T09:33:21;14.50;;;2.75;;
57567;SDS011;43403;51.948;5.922;2023-09-19T09:38:22;11.30;;;2.22;;
57567;SDS011;43403;51.948;5.922;2023-09-19T09:40:54;14.02;;;2.95;;
57567;SDS011;43403;51.948;5.922;2023-09-19T09:46:09;13.07;;;2.38;;
57567;SDS011;43403;51.948;5.922;2023-09-19T09:52:00;9.40;;;2.30;;
57567;SDS011;43403;51.948;5.922;2023-09-19T09:54:37;12.00;;;2.63;;
57567;SDS011;43403;51.948;5.922;2023-09-19T09:57:07;8.88;;;2.10;;
57567;SDS011;43403;51.948;5.922;2023-09-19T10:02:20;9.25;;;2.05;;
57567;SDS011;43403;51.948;5.922;2023-09-19T10:04:56;11.80;;;2.22;;
57567;SDS011;43403;51.948;5.922;2023-09-19T10:07:49;12.40;;;2.47;;
57567;SDS011;43403;51.948;5.922;2023-09-19T10:10:31;9.48;;;2.08;;
57567;SDS011;43403;51.948;5.922;2023-09-19T10:13:14;12.80;;;2.75;;
57567;SDS011;43403;51.948;5.922;2023-09-19T10:15:48;10.90;;;2.45;;
57567;SDS011;43403;51.948;5.922;2023-09-19T10:18:20;12.75;;;2.50;;
57567;SDS011;43403;51.948;5.922;2023-09-19T10:20:47;12.82;;;2.42;;
57567;SDS011;43403;51.948;5.922;2023-09-19T10:23:18;8.95;;;2.45;;
57567;SDS011;43403;51.948;5.922;2023-09-19T10:25:50;9.55;;;2.13;;
57567;SDS011;43403;51.948;5.922;2023-09-19T10:28:19;11.48;;;2.30;;
57567;SDS011;43403;51.948;5.922;2023-09-19T10:30:52;11.43;;;2.40;;
57567;SDS011;43403;51.948;5.922;2023-09-19T10:33:20;10.55;;;2.17;;
57567;SDS011;43403;51.948;5.922;2023-09-19T10:35:49;8.05;;;1.90;;
57567;SDS011;43403;51.948;5.922;2023-09-19T10:38:25;11.50;;;2.58;;
57567;SDS011;43403;51.948;5.922;2023-09-19T10:40:55;9.95;;;2.22;;
57567;SDS011;43403;51.948;5.922;2023-09-19T10:43:31;14.75;;;2.78;;
57567;SDS011;43403;51.948;5.922;2023-09-19T10:46:05;11.82;;;2.13;;
57567;SDS011;43403;51.948;5.922;2023-09-19T10:48:34;13.07;;;1.98;;
57567;SDS011;43403;51.948;5.922;2023-09-19T10:56:38;9.45;;;2.53;;
57567;SDS011;43403;51.948;5.922;2023-09-19T10:59:09;10.52;;;2.35;;
57567;SDS011;43403;51.948;5.922;2023-09-19T11:01:42;11.27;;;2.25;;
57567;SDS011;43403;51.948;5.922;2023-09-19T11:06:59;11.57;;;2.38;;
57567;SDS011;43403;51.948;5.922;2023-09-19T11:14:58;14.25;;;2.58;;
57567;SDS011;43403;51.948;5.922;2023-09-19T11:17:34;9.38;;;2.30;;
57567;SDS011;43403;51.948;5.922;2023-09-19T11:30:37;9.45;;;2.00;;
57567;SDS011;43403;51.948;5.922;2023-09-19T11:33:18;13.65;;;2.20;;
57567;SDS011;43403;51.948;5.922;2023-09-19T11:43:53;11.65;;;2.00;;
57567;SDS011;43403;51.948;5.922;2023-09-19T11:46:33;8.45;;;1.77;;
57567;SDS011;43403;51.948;5.922;2023-09-19T11:49:07;7.78;;;1.98;;
57567;SDS011;43403;51.948;5.922;2023-09-19T11:51:42;7.18;;;1.67;;
57567;SDS011;43403;51.948;5.922;2023-09-19T11:54:11;7.28;;;1.58;;
57567;SDS011;43403;51.948;5.922;2023-09-19T11:56:45;10.50;;;2.17;;
57567;SDS011;43403;51.948;5.922;2023-09-19T11:59:22;9.60;;;1.65;;
57567;SDS011;43403;51.948;5.922;2023-09-19T12:02:05;10.05;;;1.88;;
57567;SDS011;43403;51.948;5.922;2023-09-19T12:07:10;7.97;;;1.98;;
57567;SDS011;43403;51.948;5.922;2023-09-19T12:09:43;6.88;;;1.45;;
57567;SDS011;43403;51.948;5.922;2023-09-19T12:12:25;10.35;;;1.90;;
57567;SDS011;43403;51.948;5.922;2023-09-19T12:15:02;9.23;;;1.45;;
57567;SDS011;43403;51.948;5.922;2023-09-19T12:17:36;8.60;;;1.65;;
57567;SDS011;43403;51.948;5.922;2023-09-19T12:20:09;7.65;;;1.60;;
57567;SDS011;43403;51.948;5.922;2023-09-19T12:22:39;8.05;;;1.88;;
57567;SDS011;43403;51.948;5.922;2023-09-19T12:25:06;8.43;;;1.55;;
57567;SDS011;43403;51.948;5.922;2023-09-19T12:27:47;6.03;;;1.42;;
57567;SDS011;43403;51.948;5.922;2023-09-19T12:30:19;8.57;;;2.03;;
57567;SDS011;43403;51.948;5.922;2023-09-19T12:32:53;7.95;;;1.55;;
57567;SDS011;43403;51.948;5.922;2023-09-19T12:35:27;6.78;;;1.58;;
57567;SDS011;43403;51.948;5.922;2023-09-19T12:37:54;12.07;;;1.70;;
57567;SDS011;43403;51.948;5.922;2023-09-19T12:40:21;8.68;;;1.58;;
57567;SDS011;43403;51.948;5.922;2023-09-19T12:42:49;5.93;;;1.57;;
57567;SDS011;43403;51.948;5.922;2023-09-19T12:45:16;7.22;;;1.48;;
57567;SDS011;43403;51.948;5.922;2023-09-19T12:51:01;8.80;;;1.67;;
57567;SDS011;43403;51.948;5.922;2023-09-19T12:53:39;7.72;;;1.30;;
57567;SDS011;43403;51.948;5.922;2023-09-19T12:56:10;4.90;;;1.38;;
57567;SDS011;43403;51.948;5.922;2023-09-19T12:58:53;7.70;;;1.48;;
57567;SDS011;43403;51.948;5.922;2023-09-19T13:01:29;8.82;;;1.65;;
57567;SDS011;43403;51.948;5.922;2023-09-19T13:06:56;7.32;;;1.30;;
57567;SDS011;43403;51.948;5.922;2023-09-19T13:09:27;5.93;;;1.17;;
57567;SDS011;43403;51.948;5.922;2023-09-19T13:12:05;6.03;;;1.30;;
57567;SDS011;43403;51.948;5.922;2023-09-19T13:15:14;6.30;;;1.40;;
57567;SDS011;43403;51.948;5.922;2023-09-19T13:17:46;13.45;;;1.42;;
57567;SDS011;43403;51.948;5.922;2023-09-19T13:20:24;5.05;;;1.23;;
57567;SDS011;43403;51.948;5.922;2023-09-19T13:22:56;5.88;;;1.25;;
57567;SDS011;43403;51.948;5.922;2023-09-19T13:25:32;3.60;;;1.15;;
57567;SDS011;43403;51.948;5.922;2023-09-19T13:27:59;4.82;;;1.08;;
57567;SDS011;43403;51.948;5.922;2023-09-19T13:30:27;7.40;;;1.07;;
57567;SDS011;43403;51.948;5.922;2023-09-19T13:33:04;5.47;;;1.10;;
57567;SDS011;43403;51.948;5.922;2023-09-19T13:35:36;5.38;;;1.20;;
57567;SDS011;43403;51.948;5.922;2023-09-19T13:38:06;4.95;;;1.15;;
57567;SDS011;43403;51.948;5.922;2023-09-19T13:40:38;5.25;;;1.02;;
57567;SDS011;43403;51.948;5.922;2023-09-19T13:43:06;3.35;;;1.20;;
57567;SDS011;43403;51.948;5.922;2023-09-19T13:45:33;5.32;;;1.02;;
57567;SDS011;43403;51.948;5.922;2023-09-19T13:48:00;3.63;;;0.90;;
57567;SDS011;43403;51.948;5.922;2023-09-19T13:50:27;6.75;;;1.20;;
57567;SDS011;43403;51.948;5.922;2023-09-19T13:52:55;4.65;;;1.20;;
57567;SDS011;43403;51.948;5.922;2023-09-19T13:55:22;7.13;;;1.30;;
57567;SDS011;43403;51.948;5.922;2023-09-19T13:57:49;4.00;;;1.10;;
57567;SDS011;43403;51.948;5.922;2023-09-19T14:00:22;4.47;;;1.00;;
57567;SDS011;43403;51.948;5.922;2023-09-19T14:02:49;8.60;;;1.70;;
57567;SDS011;43403;51.948;5.922;2023-09-19T14:07:45;7.85;;;1.42;;
57567;SDS011;43403;51.948;5.922;2023-09-19T14:10:12;6.97;;;1.38;;
57567;SDS011;43403;51.948;5.922;2023-09-19T14:12:39;5.43;;;1.20;;
57567;SDS011;43403;51.948;5.922;2023-09-19T14:15:09;6.55;;;1.08;;
57567;SDS011;43403;51.948;5.922;2023-09-19T14:17:37;6.50;;;1.30;;
57567;SDS011;43403;51.948;5.922;2023-09-19T14:20:04;7.68;;;1.08;;
57567;SDS011;43403;51.948;5.922;2023-09-19T14:22:33;4.68;;;1.30;;
57567;SDS011;43403;51.948;5.922;2023-09-19T14:25:00;3.97;;;1.10;;
57567;SDS011;43403;51.948;5.922;2023-09-19T14:27:27;7.05;;;1.20;;
57567;SDS011;43403;51.948;5.922;2023-09-19T14:29:53;8.23;;;1.17;;
57567;SDS011;43403;51.948;5.922;2023-09-19T14:32:20;6.65;;;1.10;;
57567;SDS011;43403;51.948;5.922;2023-09-19T14:34:46;5.40;;;1.05;;
57567;SDS011;43403;51.948;5.922;2023-09-19T14:37:13;4.22;;;0.93;;
57567;SDS011;43403;51.948;5.922;2023-09-19T14:39:40;7.10;;;1.00;;
57567;SDS011;43403;51.948;5.922;2023-09-19T14:42:11;5.15;;;1.25;;
57567;SDS011;43403;51.948;5.922;2023-09-19T14:44:38;7.70;;;1.15;;
57567;SDS011;43403;51.948;5.922;2023-09-19T14:47:04;5.22;;;1.10;;
57567;SDS011;43403;51.948;5.922;2023-09-19T14:49:35;8.60;;;1.35;;
57567;SDS011;43403;51.948;5.922;2023-09-19T14:52:06;6.07;;;1.40;;
57567;SDS011;43403;51.948;5.922;2023-09-19T14:54:34;3.80;;;1.10;;
57567;SDS011;43403;51.948;5.922;2023-09-19T14:57:01;7.50;;;1.75;;
57567;SDS011;43403;51.948;5.922;2023-09-19T14:59:31;11.07;;;1.95;;
57567;SDS011;43403;51.948;5.922;2023-09-19T15:01:58;8.40;;;1.38;;
57567;SDS011;43403;51.948;5.922;2023-09-19T15:04:26;5.30;;;1.40;;
57567;SDS011;43403;51.948;5.922;2023-09-19T15:06:54;2.40;;;0.90;;
57567;SDS011;43403;51.948;5.922;2023-09-19T15:09:21;5.82;;;1.17;;
57567;SDS011;43403;51.948;5.922;2023-09-19T15:11:52;10.23;;;1.55;;
57567;SDS011;43403;51.948;5.922;2023-09-19T15:14:20;6.88;;;1.20;;
57567;SDS011;43403;51.948;5.922;2023-09-19T15:16:47;8.17;;;1.10;;
57567;SDS011;43403;51.948;5.922;2023-09-19T15:19:15;6.93;;;1.52;;
57567;SDS011;43403;51.948;5.922;2023-09-19T15:21:41;7.45;;;1.23;;
57567;SDS011;43403;51.948;5.922;2023-09-19T15:24:08;5.38;;;1.20;;
57567;SDS011;43403;51.948;5.922;2023-09-19T15:26:36;6.70;;;1.27;;
57567;SDS011;43403;51.948;5.922;2023-09-19T15:29:08;7.45;;;1.25;;
57567;SDS011;43403;51.948;5.922;2023-09-19T15:31:36;8.32;;;1.60;;
57567;SDS011;43403;51.948;5.922;2023-09-19T15:34:03;4.57;;;1.40;;
57567;SDS011;43403;51.948;5.922;2023-09-19T15:36:31;5.22;;;1.02;;
57567;SDS011;43403;51.948;5.922;2023-09-19T15:38:58;7.00;;;1.30;;
57567;SDS011;43403;51.948;5.922;2023-09-19T15:43:59;4.53;;;1.35;;
57567;SDS011;43403;51.948;5.922;2023-09-19T15:46:28;5.05;;;1.20;;
57567;SDS011;43403;51.948;5.922;2023-09-19T15:49:00;5.18;;;1.27;;
57567;SDS011;43403;51.948;5.922;2023-09-19T15:51:27;3.38;;;1.10;;
57567;SDS011;43403;51.948;5.922;2023-09-19T15:53:54;5.22;;;1.20;;
57567;SDS011;43403;51.948;5.922;2023-09-19T15:56:23;4.43;;;1.02;;
57567;SDS011;43403;51.948;5.922;2023-09-19T15:58:51;4.13;;;1.03;;
57567;SDS011;43403;51.948;5.922;2023-09-19T16:01:20;6.10;;;1.27;;
57567;SDS011;43403;51.948;5.922;2023-09-19T16:03:49;6.90;;;1.52;;
57567;SDS011;43403;51.948;5.922;2023-09-19T16:06:22;3.97;;;1.20;;
57567;SDS011;43403;51.948;5.922;2023-09-19T16:08:51;9.52;;;1.42;;
57567;SDS011;43403;51.948;5.922;2023-09-19T16:11:21;4.68;;;1.10;;
57567;SDS011;43403;51.948;5.922;2023-09-19T16:13:49;5.88;;;1.52;;
57567;SDS011;43403;51.948;5.922;2023-09-19T16:16:17;5.15;;;1.40;;
57567;SDS011;43403;51.948;5.922;2023-09-19T16:18:54;5.15;;;1.52;;
57567;SDS011;43403;51.948;5.922;2023-09-19T16:21:24;5.30;;;1.33;;